createdAt,value
2023-03-28T00:00:50.936Z,76.10
2023-03-28T00:03:22.581Z,76.30
2023-03-28T00:05:55.569Z,74.90
2023-03-28T00:08:23.732Z,77.30
2023-03-28T00:10:51.787Z,78.60
2023-03-28T00:13:21.264Z,76.40
2023-03-28T00:15:52.826Z,76.60
2023-03-28T00:18:22.515Z,76.70
2023-03-28T00:20:50.438Z,76.70
2023-03-28T00:23:18.314Z,77.50
2023-03-28T00:25:46.235Z,76.60
2023-03-28T00:28:14.325Z,76.70
2023-03-28T00:30:42.209Z,76.60
2023-03-28T00:33:10.055Z,76.80
2023-03-28T00:35:39.275Z,76.90
2023-03-28T00:38:07.139Z,77.00
2023-03-28T00:40:38.769Z,77.20
2023-03-28T00:43:06.625Z,77.30
2023-03-28T00:45:34.816Z,77.00
2023-03-28T00:48:14.771Z,77.00
2023-03-28T00:50:48.714Z,77.10
2023-03-28T00:53:20.894Z,77.30
2023-03-28T00:55:50.789Z,77.40
2023-03-28T00:58:23.077Z,77.50
2023-03-28T01:00:52.095Z,77.50
2023-03-28T01:03:22.542Z,77.60
2023-03-28T01:05:52.387Z,77.70
2023-03-28T01:08:23.248Z,77.60
2023-03-28T01:10:51.621Z,77.90
2023-03-28T01:13:22.359Z,77.90
2023-03-28T01:15:51.345Z,77.80
2023-03-28T01:18:23.855Z,77.90
2023-03-28T01:21:28.707Z,77.90
2023-03-28T01:24:28.897Z,78.20
2023-03-28T01:26:59.254Z,78.10
2023-03-28T01:30:00.885Z,78.00
2023-03-28T01:33:07.612Z,78.30
2023-03-28T01:36:13.585Z,78.30
2023-03-28T01:39:06.285Z,78.40
2023-03-28T01:41:45.833Z,78.20
2023-03-28T01:44:25.107Z,78.30
2023-03-28T01:47:00.165Z,78.40
2023-03-28T01:49:35.930Z,78.40
2023-03-28T01:52:09.994Z,78.40
2023-03-28T01:54:46.184Z,78.40
2023-03-28T01:57:21.495Z,78.40
2023-03-28T01:59:56.152Z,78.20
2023-03-28T02:02:30.576Z,78.20
2023-03-28T02:05:01.371Z,78.10
2023-03-28T02:07:30.475Z,78.10
2023-03-28T02:10:02.443Z,78.20
2023-03-28T02:12:35.345Z,78.00
2023-03-28T02:15:05.517Z,77.90
2023-03-28T02:17:39.337Z,78.10
2023-03-28T02:20:11.713Z,79.70
2023-03-28T02:22:46.030Z,78.20
2023-03-28T02:25:15.460Z,79.00
2023-03-28T02:27:47.050Z,78.20
2023-03-28T02:30:15.483Z,78.30
2023-03-28T02:32:44.043Z,78.10
2023-03-28T02:35:12.229Z,78.10
2023-03-28T02:37:49.433Z,78.10
2023-03-28T02:40:36.574Z,77.80
2023-03-28T02:43:23.229Z,78.40
2023-03-28T02:46:04.388Z,78.40
2023-03-28T02:48:57.937Z,78.40
2023-03-28T02:51:34.595Z,78.50
2023-03-28T02:54:17.523Z,78.40
2023-03-28T02:56:56.443Z,78.60
2023-03-28T02:59:28.774Z,78.60
2023-03-28T03:01:56.920Z,78.60
2023-03-28T03:04:24.781Z,78.30
2023-03-28T03:06:52.707Z,77.20
2023-03-28T03:09:20.820Z,78.70
2023-03-28T03:11:49.978Z,78.70
2023-03-28T03:14:17.855Z,78.80
2023-03-28T03:16:45.688Z,80.30
2023-03-28T03:19:13.604Z,78.60
2023-03-28T03:21:41.470Z,78.60
2023-03-28T03:24:10.435Z,78.60
2023-03-28T03:26:38.314Z,78.60
2023-03-28T03:29:07.746Z,78.60
2023-03-28T03:31:35.634Z,78.80
2023-03-28T03:34:03.735Z,78.90
2023-03-28T03:36:31.844Z,79.00
2023-03-28T03:38:59.775Z,80.50
2023-03-28T03:41:27.628Z,78.90
2023-03-28T03:43:55.900Z,78.70
2023-03-28T03:46:25.502Z,78.80
2023-03-28T03:48:53.443Z,79.00
2023-03-28T03:51:21.659Z,78.80
2023-03-28T03:53:50.653Z,78.80
2023-03-28T03:56:18.568Z,79.20
2023-03-28T03:58:46.456Z,79.30
2023-03-28T04:01:14.883Z,79.50
2023-03-28T04:03:44.602Z,79.30
2023-03-28T04:06:12.500Z,80.10
2023-03-28T04:08:40.437Z,79.60
2023-03-28T04:11:10.444Z,79.60
2023-03-28T04:13:38.613Z,79.70
2023-03-28T04:16:07.493Z,79.50
2023-03-28T04:18:35.624Z,79.50
2023-03-28T04:21:05.282Z,79.40
2023-03-28T04:23:35.292Z,79.30
2023-03-28T04:26:03.619Z,79.20
2023-03-28T04:28:31.740Z,79.20
2023-03-28T04:30:59.833Z,79.10
2023-03-28T04:33:30.526Z,79.40
2023-03-28T04:36:01.975Z,79.70
2023-03-28T04:38:36.116Z,79.70
2023-03-28T04:41:05.391Z,79.70
2023-03-28T04:43:33.605Z,79.60
2023-03-28T04:46:01.724Z,79.50
2023-03-28T04:48:29.762Z,80.70
2023-03-28T04:50:57.902Z,79.30
2023-03-28T04:53:25.846Z,79.50
2023-03-28T04:55:55.159Z,79.50
2023-03-28T04:58:25.392Z,78.60
2023-03-28T05:00:54.857Z,79.70
2023-03-28T05:03:24.806Z,79.20
2023-03-28T05:05:53.849Z,79.60
2023-03-28T05:08:24.824Z,79.50
2023-03-28T05:10:55.178Z,79.90
2023-03-28T05:13:23.173Z,80.10
2023-03-28T05:15:51.116Z,80.10
2023-03-28T05:18:18.998Z,80.30
2023-03-28T05:20:47.047Z,80.20
2023-03-28T05:23:15.333Z,80.20
2023-03-28T05:25:43.491Z,80.30
2023-03-28T05:28:12.619Z,80.30
2023-03-28T05:30:40.601Z,80.40
2023-03-28T05:33:08.450Z,80.40
2023-03-28T05:35:37.439Z,80.50
2023-03-28T05:38:05.553Z,80.60
2023-03-28T05:40:33.329Z,80.70
2023-03-28T05:43:01.172Z,80.80
2023-03-28T05:45:30.484Z,80.90
2023-03-28T05:47:58.444Z,81.10
2023-03-28T05:50:27.391Z,81.10
2023-03-28T05:52:55.346Z,81.20
2023-03-28T05:55:23.283Z,80.50
2023-03-28T05:57:51.846Z,81.60
2023-03-28T06:00:20.697Z,81.40
2023-03-28T06:02:50.442Z,81.70
2023-03-28T06:05:19.839Z,81.70
2023-03-28T06:07:48.205Z,81.90
2023-03-28T06:10:16.692Z,81.90
2023-03-28T06:12:44.722Z,81.90
2023-03-28T06:15:13.640Z,82.00
2023-03-28T06:17:41.565Z,82.40
2023-03-28T06:20:12.354Z,82.50
2023-03-28T06:22:40.731Z,82.90
2023-03-28T06:25:09.611Z,82.90
2023-03-28T06:27:37.426Z,83.20
2023-03-28T06:30:06.160Z,83.20
2023-03-28T06:32:34.139Z,83.60
2023-03-28T06:35:02.010Z,83.80
2023-03-28T06:37:31.542Z,83.80
2023-03-28T06:39:59.440Z,84.00
2023-03-28T06:42:27.460Z,84.20
2023-03-28T06:44:55.792Z,84.50
2023-03-28T06:47:23.814Z,84.70
2023-03-28T06:49:51.725Z,85.60
2023-03-28T06:52:20.121Z,85.70
2023-03-28T06:54:49.365Z,85.30
2023-03-28T06:57:17.543Z,85.60
2023-03-28T06:59:45.428Z,85.60
2023-03-28T07:02:13.695Z,85.80
2023-03-28T07:04:41.624Z,85.80
2023-03-28T07:07:09.746Z,85.70
2023-03-28T07:09:37.932Z,87.60
2023-03-28T07:12:07.578Z,85.70
2023-03-28T07:14:35.854Z,85.60
2023-03-28T07:17:03.727Z,85.40
2023-03-28T07:19:31.682Z,85.10
2023-03-28T07:21:59.600Z,85.00
2023-03-28T07:24:27.740Z,85.00
2023-03-28T07:27:11.855Z,85.10
2023-03-28T07:29:43.979Z,85.10
2023-03-28T07:32:11.940Z,85.10
2023-03-28T07:34:39.860Z,85.10
2023-03-28T07:37:08.798Z,85.20
2023-03-28T07:39:39.944Z,85.30
2023-03-28T07:42:11.430Z,85.30
2023-03-28T07:44:41.812Z,85.30
2023-03-28T07:47:12.825Z,85.00
2023-03-28T07:49:40.979Z,84.90
2023-03-28T07:52:08.888Z,84.60
2023-03-28T07:54:37.312Z,84.50
2023-03-28T07:57:05.648Z,84.40
2023-03-28T07:59:33.904Z,84.30
2023-03-28T08:02:01.790Z,83.50
2023-03-28T08:04:32.040Z,83.10
2023-03-28T08:07:00.331Z,83.20
2023-03-28T08:09:28.438Z,83.20
2023-03-28T08:11:56.360Z,83.00
2023-03-28T08:14:24.206Z,83.00
2023-03-28T08:16:52.773Z,82.80
2023-03-28T08:19:21.024Z,83.20
2023-03-28T08:21:50.251Z,83.00
2023-03-28T08:24:28.889Z,81.90
2023-03-28T08:27:03.191Z,82.00
2023-03-28T08:29:32.115Z,81.80
2023-03-28T08:32:00.114Z,81.30
2023-03-28T08:34:28.021Z,81.10
2023-03-28T08:36:59.245Z,80.60
2023-03-28T08:39:27.833Z,80.60
2023-03-28T08:42:16.673Z,81.40
2023-03-28T08:44:56.524Z,81.40
2023-03-28T08:47:30.792Z,80.20
2023-03-28T08:50:02.891Z,79.90
2023-03-28T08:52:32.942Z,79.90
2023-03-28T08:55:06.973Z,77.80
2023-03-28T08:57:37.070Z,79.80
2023-03-28T09:00:14.989Z,79.50
2023-03-28T09:02:44.327Z,79.20
2023-03-28T09:05:23.305Z,79.20
2023-03-28T09:07:59.696Z,78.20
2023-03-28T09:10:31.908Z,77.70
2023-03-28T09:13:11.561Z,77.20
2023-03-28T09:15:51.456Z,77.20
2023-03-28T09:18:31.842Z,76.60
2023-03-28T09:21:05.588Z,75.10
2023-03-28T09:23:55.378Z,75.20
2023-03-28T09:26:28.798Z,74.60
2023-03-28T09:29:01.176Z,74.90
2023-03-28T09:31:41.855Z,74.50
2023-03-28T09:34:19.919Z,73.50
2023-03-28T09:36:50.551Z,73.60
2023-03-28T09:39:33.335Z,72.70
2023-03-28T09:42:06.390Z,71.30
2023-03-28T09:44:53.557Z,70.70
2023-03-28T09:47:23.344Z,70.50
2023-03-28T09:50:02.311Z,70.80
2023-03-28T09:52:37.862Z,70.70
2023-03-28T09:55:17.526Z,70.50
2023-03-28T09:58:02.684Z,69.60
2023-03-28T10:00:34.779Z,68.30
2023-03-28T10:03:02.770Z,69.10
2023-03-28T10:05:36.828Z,68.50
2023-03-28T10:08:07.337Z,68.60
2023-03-28T10:10:36.637Z,68.60
2023-03-28T10:13:05.807Z,68.40
2023-03-28T10:15:39.738Z,68.80
2023-03-28T10:18:07.824Z,68.70
2023-03-28T10:20:38.493Z,68.50
2023-03-28T10:23:06.856Z,68.10
2023-03-28T10:25:39.577Z,68.00
2023-03-28T10:28:09.193Z,67.00
2023-03-28T10:30:38.871Z,67.70
2023-03-28T10:33:22.231Z,67.20
2023-03-28T10:35:57.785Z,64.80
2023-03-28T10:38:28.553Z,65.10
2023-03-28T10:41:03.041Z,64.90
2023-03-28T10:43:37.283Z,64.00
2023-03-28T10:46:15.590Z,62.90
2023-03-28T10:48:49.411Z,62.30
2023-03-28T10:51:21.910Z,61.90
2023-03-28T10:54:15.990Z,61.80
2023-03-28T10:56:52.687Z,61.30
2023-03-28T10:59:45.425Z,62.00
2023-03-28T11:02:40.865Z,62.30
2023-03-28T11:05:28.976Z,62.30
2023-03-28T11:08:04.063Z,61.70
2023-03-28T11:10:39.951Z,61.90
2023-03-28T11:13:22.983Z,61.70
2023-03-28T11:15:59.317Z,61.60
2023-03-28T11:18:44.025Z,61.90
2023-03-28T11:21:21.827Z,61.10
2023-03-28T11:24:01.542Z,60.80
2023-03-28T11:26:39.995Z,61.30
2023-03-28T11:29:33.177Z,62.70
2023-03-28T11:32:19.708Z,61.20
2023-03-28T11:34:59.637Z,61.20
2023-03-28T11:37:32.019Z,60.80
2023-03-28T11:40:07.216Z,61.40
2023-03-28T11:42:42.078Z,62.20
2023-03-28T11:45:37.477Z,62.10
2023-03-28T11:48:19.827Z,61.50
2023-03-28T11:50:54.564Z,62.20
2023-03-28T11:53:27.996Z,62.30
2023-03-28T11:56:02.902Z,61.90
2023-03-28T11:58:34.178Z,61.50
2023-03-28T12:01:09.717Z,61.30
2023-03-28T12:03:50.896Z,60.60
2023-03-28T12:06:27.184Z,60.80
2023-03-28T12:09:01.537Z,59.90
2023-03-28T12:11:36.832Z,60.20
2023-03-28T12:14:15.391Z,59.90
2023-03-28T12:16:48.847Z,60.20
2023-03-28T12:19:22.085Z,58.90
2023-03-28T12:21:52.572Z,58.40
2023-03-28T12:24:26.706Z,56.90
2023-03-28T12:27:02.706Z,57.40
2023-03-28T12:29:37.499Z,57.20
2023-03-28T12:32:25.047Z,57.20
2023-03-28T12:35:01.372Z,56.70
2023-03-28T12:37:36.593Z,57.20
2023-03-28T12:40:14.609Z,56.40
2023-03-28T12:42:44.001Z,56.60
2023-03-28T12:45:17.425Z,58.10
2023-03-28T12:47:49.782Z,56.40
2023-03-28T12:50:23.529Z,55.90
2023-03-28T12:52:53.749Z,55.80
2023-03-28T12:55:45.399Z,55.70
2023-03-28T12:58:21.944Z,53.80
2023-03-28T13:01:05.956Z,54.80
2023-03-28T13:03:52.360Z,53.80
2023-03-28T13:06:27.284Z,54.20
2023-03-28T13:09:15.496Z,54.10
2023-03-28T13:11:54.657Z,54.10
2023-03-28T13:14:35.597Z,54.20
2023-03-28T13:17:16.482Z,53.80
2023-03-28T13:19:52.977Z,54.20
2023-03-28T13:22:31.870Z,53.70
2023-03-28T13:25:23.036Z,53.60
2023-03-28T13:27:52.965Z,54.10
2023-03-28T13:30:24.361Z,54.80
2023-03-28T13:32:54.414Z,55.10
2023-03-28T13:35:47.052Z,55.90
2023-03-28T13:38:32.700Z,55.30
2023-03-28T13:41:02.200Z,55.80
2023-03-28T13:43:42.797Z,56.10
2023-03-28T13:46:14.398Z,56.10
2023-03-28T13:48:49.363Z,56.50
2023-03-28T13:51:22.304Z,56.70
2023-03-28T13:53:50.655Z,56.20
2023-03-28T13:56:24.150Z,56.20
2023-03-28T13:58:53.783Z,56.70
2023-03-28T14:01:25.366Z,56.60
2023-03-28T14:03:54.029Z,56.80
2023-03-28T14:06:25.925Z,56.60
2023-03-28T14:08:56.872Z,55.50
2023-03-28T14:11:30.636Z,55.50
2023-03-28T14:14:09.318Z,55.80
2023-03-28T14:16:38.133Z,55.50
2023-03-28T14:19:07.512Z,54.90
2023-03-28T14:21:36.958Z,54.70
2023-03-28T14:24:07.728Z,53.70
2023-03-28T14:26:37.304Z,53.90
2023-03-28T14:29:08.262Z,53.60
2023-03-28T14:31:38.528Z,54.20
2023-03-28T14:34:17.661Z,53.90
2023-03-28T14:37:01.276Z,53.40
2023-03-28T14:39:31.559Z,53.90
2023-03-28T14:42:02.946Z,54.40
2023-03-28T14:44:35.828Z,54.50
2023-03-28T14:47:04.600Z,54.20
2023-03-28T14:49:33.086Z,54.40
2023-03-28T14:52:04.131Z,54.40
2023-03-28T14:54:35.419Z,53.80
2023-03-28T14:57:05.523Z,54.40
2023-03-28T14:59:41.355Z,54.50
2023-03-28T15:02:20.075Z,54.20
2023-03-28T15:04:48.997Z,54.40
2023-03-28T15:07:24.426Z,55.90
2023-03-28T15:10:07.373Z,54.90
2023-03-28T15:12:40.869Z,55.00
2023-03-28T15:15:21.309Z,55.70
2023-03-28T15:17:50.018Z,54.90
2023-03-28T15:20:19.884Z,55.20
2023-03-28T15:22:55.752Z,54.80
2023-03-28T15:25:24.170Z,54.20
2023-03-28T15:27:57.141Z,54.60
2023-03-28T15:30:26.492Z,54.30
2023-03-28T15:33:02.865Z,54.70
2023-03-28T15:35:33.996Z,54.30
2023-03-28T15:38:08.310Z,54.40
2023-03-28T15:40:41.602Z,54.50
2023-03-28T15:43:30.011Z,55.00
2023-03-28T15:46:00.970Z,55.10
2023-03-28T15:48:34.546Z,55.00
2023-03-28T15:51:05.750Z,54.60
2023-03-28T15:53:38.067Z,55.10
2023-03-28T15:56:08.897Z,54.90
2023-03-28T15:58:43.175Z,55.20
2023-03-28T16:01:28.994Z,55.30
2023-03-28T16:04:27.836Z,55.60
2023-03-28T16:07:04.673Z,55.60
2023-03-28T16:09:34.872Z,55.50
2023-03-28T16:12:04.695Z,55.70
2023-03-28T16:14:33.349Z,55.40
2023-03-28T16:17:01.568Z,55.60
2023-03-28T16:19:30.825Z,55.80
2023-03-28T16:22:01.099Z,55.70
2023-03-28T16:24:29.889Z,56.40
2023-03-28T16:27:01.318Z,56.00
2023-03-28T16:29:29.768Z,55.90
2023-03-28T16:31:57.955Z,56.40
2023-03-28T16:34:26.190Z,56.50
2023-03-28T16:36:57.963Z,56.80
2023-03-28T16:39:26.020Z,57.30
2023-03-28T16:41:54.028Z,57.70
2023-03-28T16:44:23.269Z,58.30
2023-03-28T16:46:51.829Z,58.70
2023-03-28T16:49:19.800Z,58.80
2023-03-28T16:51:47.650Z,59.30
2023-03-28T16:54:17.792Z,59.40
2023-03-28T16:56:45.685Z,59.80
2023-03-28T16:59:14.028Z,60.50
2023-03-28T17:01:46.287Z,60.90
2023-03-28T17:04:14.624Z,61.20
2023-03-28T17:06:42.449Z,61.50
2023-03-28T17:09:10.262Z,62.30
2023-03-28T17:11:40.214Z,62.40
2023-03-28T17:14:08.161Z,62.50
2023-03-28T17:16:36.602Z,63.50
2023-03-28T17:19:05.838Z,64.20
2023-03-28T17:21:34.944Z,64.70
2023-03-28T17:24:03.697Z,65.10
2023-03-28T17:26:31.905Z,65.90
2023-03-28T17:28:59.914Z,66.30
2023-03-28T17:31:28.083Z,66.50
2023-03-28T17:33:56.695Z,66.00
2023-03-28T17:36:27.236Z,66.20
2023-03-28T17:38:57.985Z,66.40
2023-03-28T17:41:27.668Z,66.60
2023-03-28T17:43:57.071Z,66.70
2023-03-28T17:46:26.010Z,66.80
2023-03-28T17:48:54.743Z,66.70
2023-03-28T17:51:22.681Z,67.10
2023-03-28T17:53:51.954Z,67.10
2023-03-28T17:56:24.193Z,67.30
2023-03-28T17:58:52.363Z,67.00
2023-03-28T18:01:21.026Z,67.50
2023-03-28T18:03:49.024Z,68.00
2023-03-28T18:06:16.991Z,68.00
2023-03-28T18:08:45.458Z,67.90
2023-03-28T18:11:17.755Z,68.20
2023-03-28T18:13:46.581Z,68.50
2023-03-28T18:16:18.099Z,68.80
2023-03-28T18:18:46.551Z,69.00
2023-03-28T18:21:14.416Z,69.20
2023-03-28T18:23:42.506Z,69.30
2023-03-28T18:26:10.545Z,69.50
2023-03-28T18:28:40.370Z,69.30
2023-03-28T18:31:10.158Z,69.30
2023-03-28T18:33:38.283Z,69.60
2023-03-28T18:36:06.875Z,69.30
2023-03-28T18:38:38.162Z,69.60
2023-03-28T18:41:08.083Z,69.90
2023-03-28T18:43:35.997Z,69.80
2023-03-28T18:46:07.510Z,69.80
2023-03-28T18:48:35.752Z,70.30
2023-03-28T18:51:06.163Z,70.80
2023-03-28T18:53:34.226Z,70.30
2023-03-28T18:56:03.384Z,70.20
2023-03-28T18:58:38.319Z,70.50
2023-03-28T19:01:11.242Z,70.50
2023-03-28T19:03:41.751Z,70.90
2023-03-28T19:06:11.430Z,70.90
2023-03-28T19:08:40.236Z,70.90
2023-03-28T19:11:10.257Z,70.70
2023-03-28T19:13:38.274Z,71.00
2023-03-28T19:16:09.694Z,71.10
2023-03-28T19:18:39.558Z,71.30
2023-03-28T19:21:08.500Z,71.60
2023-03-28T19:23:37.526Z,71.70
2023-03-28T19:26:06.700Z,71.80
2023-03-28T19:28:34.885Z,72.10
2023-03-28T19:31:04.641Z,72.20
2023-03-28T19:33:34.012Z,72.60
2023-03-28T19:36:02.055Z,72.70
2023-03-28T19:38:30.908Z,72.80
2023-03-28T19:40:59.415Z,73.00
2023-03-28T19:43:28.017Z,73.40
2023-03-28T19:46:02.293Z,74.00
2023-03-28T19:48:30.807Z,74.80
2023-03-28T19:51:00.476Z,74.30
2023-03-28T19:53:28.588Z,74.60
2023-03-28T19:55:58.880Z,74.70
2023-03-28T19:58:28.409Z,75.40
2023-03-28T20:00:57.417Z,75.50
2023-03-28T20:03:25.660Z,75.50
2023-03-28T20:05:53.718Z,75.60
2023-03-28T20:08:22.984Z,75.80
2023-03-28T20:10:52.527Z,76.30
2023-03-28T20:13:20.495Z,76.70
2023-03-28T20:15:48.451Z,76.60
2023-03-28T20:18:19.668Z,76.80
2023-03-28T20:20:51.465Z,77.00
2023-03-28T20:23:20.263Z,76.70
2023-03-28T20:25:49.726Z,76.70
2023-03-28T20:28:17.696Z,76.60
2023-03-28T20:30:46.458Z,76.50
2023-03-28T20:33:15.085Z,76.80
2023-03-28T20:35:43.646Z,76.80
2023-03-28T20:38:11.585Z,76.60
2023-03-28T20:40:40.909Z,76.70
2023-03-28T20:43:11.740Z,77.00
2023-03-28T20:45:39.713Z,77.40
2023-03-28T20:48:10.306Z,77.50
2023-03-28T20:50:41.427Z,77.70
2023-03-28T20:53:09.629Z,77.70
2023-03-28T20:55:37.734Z,77.40
2023-03-28T20:58:05.600Z,77.20
2023-03-28T21:00:35.819Z,77.30
2023-03-28T21:03:03.950Z,77.30
2023-03-28T21:05:33.105Z,77.20
2023-03-28T21:08:02.143Z,77.40
2023-03-28T21:10:31.535Z,77.40
2023-03-28T21:12:59.387Z,77.10
2023-03-28T21:15:28.975Z,77.40
2023-03-28T21:17:59.038Z,77.40
2023-03-28T21:20:27.290Z,77.60
2023-03-28T21:22:57.309Z,77.70
2023-03-28T21:25:25.122Z,77.30
2023-03-28T21:27:53.102Z,78.00
2023-03-28T21:30:21.020Z,77.40
2023-03-28T21:32:49.126Z,79.40
2023-03-28T21:35:19.106Z,77.30
2023-03-28T21:37:46.928Z,77.20
2023-03-28T21:40:15.916Z,77.30
2023-03-28T21:42:43.846Z,77.40
2023-03-28T21:45:12.649Z,77.30
2023-03-28T21:47:41.590Z,77.30
2023-03-28T21:50:12.473Z,77.40
2023-03-28T21:52:43.459Z,77.80
2023-03-28T21:55:11.326Z,78.00
2023-03-28T21:57:39.187Z,78.00
2023-03-28T22:00:14.857Z,78.10
2023-03-28T22:02:43.703Z,79.30
2023-03-28T22:05:22.559Z,79.10
2023-03-28T22:07:59.045Z,78.40
2023-03-28T22:10:27.429Z,79.40
2023-03-28T22:12:58.713Z,78.50
2023-03-28T22:15:27.336Z,78.80
2023-03-28T22:17:59.105Z,79.20
2023-03-28T22:20:28.522Z,79.40
2023-03-28T22:23:00.491Z,78.30
2023-03-28T22:25:35.820Z,79.30
2023-03-28T22:28:04.962Z,79.20
2023-03-28T22:30:33.590Z,79.20
2023-03-28T22:33:02.555Z,79.30
2023-03-28T22:35:30.936Z,79.20
2023-03-28T22:38:00.389Z,78.30
2023-03-28T22:40:28.659Z,79.40
2023-03-28T22:42:57.228Z,79.50
2023-03-28T22:45:26.942Z,78.80
2023-03-28T22:47:58.493Z,79.60
2023-03-28T22:50:27.608Z,79.00
2023-03-28T22:52:55.474Z,79.60
2023-03-28T22:55:25.391Z,79.50
2023-03-28T22:57:53.843Z,79.50
2023-03-28T23:00:23.200Z,79.60
2023-03-28T23:02:51.772Z,79.70
2023-03-28T23:05:20.752Z,79.50
2023-03-28T23:07:50.512Z,79.80
2023-03-28T23:10:19.939Z,79.60
2023-03-28T23:12:49.901Z,79.80
2023-03-28T23:15:17.962Z,79.50
2023-03-28T23:17:45.901Z,79.60
2023-03-28T23:20:16.993Z,79.70
2023-03-28T23:22:47.248Z,79.50
2023-03-28T23:25:18.352Z,79.70
2023-03-28T23:27:46.808Z,80.00
2023-03-28T23:30:17.068Z,79.60
2023-03-28T23:32:45.789Z,80.50
2023-03-28T23:35:13.777Z,79.80
2023-03-28T23:37:41.852Z,79.90
2023-03-28T23:40:14.764Z,80.40
2023-03-28T23:42:44.743Z,80.00
2023-03-28T23:45:15.539Z,80.10
2023-03-28T23:47:43.901Z,80.10
2023-03-28T23:50:12.937Z,79.90
2023-03-28T23:52:40.882Z,80.10
2023-03-28T23:55:09.855Z,79.80
2023-03-28T23:57:37.903Z,80.00
